createdAt,value
2023-11-21T00:00:12.965Z,19.45
2023-11-21T00:02:59.376Z,19.20
2023-11-21T00:05:46.273Z,19.42
2023-11-21T00:08:32.800Z,20.05
2023-11-21T00:11:19.985Z,19.65
2023-11-21T00:14:06.446Z,20.67
2023-11-21T00:16:53.103Z,21.02
2023-11-21T00:19:39.605Z,20.70
2023-11-21T00:22:29.998Z,20.45
2023-11-21T00:25:16.956Z,19.35
2023-11-21T00:28:04.581Z,19.15
2023-11-21T00:30:51.021Z,18.75
2023-11-21T00:33:39.158Z,18.98
2023-11-21T00:36:27.120Z,19.05
2023-11-21T00:39:14.222Z,20.25
2023-11-21T00:42:00.322Z,20.05
2023-11-21T00:44:47.597Z,19.40
2023-11-21T00:47:34.448Z,19.75
2023-11-21T00:50:21.291Z,19.00
2023-11-21T00:53:08.479Z,18.77
2023-11-21T00:55:58.303Z,19.25
2023-11-21T00:58:47.710Z,18.25
2023-11-21T01:01:34.035Z,19.50
2023-11-21T01:04:20.372Z,19.65
2023-11-21T01:07:32.476Z,19.30
2023-11-21T01:10:19.022Z,19.00
2023-11-21T01:13:06.778Z,19.05
2023-11-21T01:15:52.829Z,17.80
2023-11-21T01:18:39.817Z,17.83
2023-11-21T01:21:26.761Z,18.30
2023-11-21T01:24:14.416Z,18.08
2023-11-21T01:27:00.567Z,18.58
2023-11-21T01:29:47.504Z,19.02
2023-11-21T01:32:34.049Z,18.30
2023-11-21T01:35:20.664Z,19.23
2023-11-21T01:38:09.154Z,18.33
2023-11-21T01:40:56.274Z,18.23
2023-11-21T01:43:42.787Z,18.10
2023-11-21T01:46:30.514Z,18.20
2023-11-21T01:49:16.950Z,19.27
2023-11-21T01:52:06.190Z,19.63
2023-11-21T01:54:53.059Z,19.25
2023-11-21T01:57:40.524Z,18.85
2023-11-21T02:00:29.613Z,19.40
2023-11-21T02:03:16.640Z,18.00
2023-11-21T02:06:03.054Z,18.00
2023-11-21T02:08:50.758Z,18.20
2023-11-21T02:11:37.033Z,19.13
2023-11-21T02:14:23.486Z,19.67
2023-11-21T02:17:10.022Z,19.38
2023-11-21T02:19:57.512Z,19.73
2023-11-21T02:22:45.181Z,19.60
2023-11-21T02:25:35.351Z,19.40
2023-11-21T02:28:27.437Z,18.85
2023-11-21T02:31:18.084Z,19.60
2023-11-21T02:34:06.874Z,19.05
2023-11-21T02:36:53.209Z,18.98
2023-11-21T02:39:39.526Z,20.50
2023-11-21T02:42:26.654Z,19.88
2023-11-21T02:45:15.839Z,19.23
2023-11-21T02:48:01.722Z,19.00
2023-11-21T02:50:48.342Z,18.70
2023-11-21T02:53:35.219Z,19.10
2023-11-21T02:56:21.729Z,18.77
2023-11-21T02:59:08.130Z,18.63
2023-11-21T03:01:54.793Z,18.67
2023-11-21T03:04:41.468Z,19.63
2023-11-21T03:07:27.601Z,19.00
2023-11-21T03:10:14.936Z,19.23
2023-11-21T03:13:01.118Z,18.80
2023-11-21T03:15:47.290Z,18.83
2023-11-21T03:18:33.809Z,18.60
2023-11-21T03:21:20.829Z,17.77
2023-11-21T03:24:08.757Z,17.60
2023-11-21T03:26:56.326Z,18.90
2023-11-21T03:29:42.986Z,18.98
2023-11-21T03:32:29.908Z,19.00
2023-11-21T03:35:16.157Z,19.58
2023-11-21T03:38:03.363Z,18.80
2023-11-21T03:40:50.232Z,18.70
2023-11-21T03:43:37.887Z,18.00
2023-11-21T03:46:24.963Z,18.50
2023-11-21T03:49:13.168Z,18.30
2023-11-21T03:52:01.734Z,18.27
2023-11-21T03:54:48.462Z,18.85
2023-11-21T03:57:34.271Z,18.23
2023-11-21T04:00:21.789Z,18.63
2023-11-21T04:03:08.053Z,19.02
2023-11-21T04:05:54.672Z,19.33
2023-11-21T04:08:40.530Z,19.25
2023-11-21T04:11:27.674Z,19.40
2023-11-21T04:14:14.670Z,19.65
2023-11-21T04:17:00.926Z,19.27
2023-11-21T04:19:47.686Z,19.58
2023-11-21T04:22:34.700Z,19.85
2023-11-21T04:25:21.092Z,19.20
2023-11-21T04:28:08.580Z,19.42
2023-11-21T04:30:54.767Z,18.73
2023-11-21T04:33:41.624Z,19.70
2023-11-21T04:36:28.036Z,18.80
2023-11-21T04:39:14.265Z,19.40
2023-11-21T04:42:00.286Z,18.75
2023-11-21T04:44:47.671Z,19.40
2023-11-21T04:47:34.160Z,19.55
2023-11-21T04:50:21.499Z,18.63
2023-11-21T04:53:07.552Z,19.80
2023-11-21T04:55:54.615Z,19.90
2023-11-21T04:58:41.185Z,20.05
2023-11-21T05:01:29.196Z,18.70
2023-11-21T05:04:16.023Z,18.95
2023-11-21T05:07:02.588Z,19.02
2023-11-21T05:09:48.667Z,19.80
2023-11-21T05:12:38.835Z,20.23
2023-11-21T05:15:25.237Z,19.33
2023-11-21T05:18:12.642Z,19.58
2023-11-21T05:20:59.512Z,20.85
2023-11-21T05:23:46.463Z,20.13
2023-11-21T05:26:32.804Z,18.58
2023-11-21T05:29:20.793Z,19.17
2023-11-21T05:32:07.135Z,18.45
2023-11-21T05:34:54.144Z,18.45
2023-11-21T05:37:41.143Z,17.95
2023-11-21T05:40:31.625Z,18.05
2023-11-21T05:43:17.967Z,18.83
2023-11-21T05:46:05.249Z,18.98
2023-11-21T05:48:51.776Z,20.08
2023-11-21T05:51:40.260Z,19.98
2023-11-21T05:54:27.160Z,19.50
2023-11-21T05:57:14.034Z,19.15
2023-11-21T06:00:00.689Z,18.77
2023-11-21T06:02:57.143Z,19.50
2023-11-21T06:05:43.545Z,20.55
2023-11-21T06:08:30.155Z,20.30
2023-11-21T06:11:17.617Z,19.55
2023-11-21T06:14:04.368Z,20.60
2023-11-21T06:16:52.354Z,20.23
2023-11-21T06:19:38.567Z,20.10
2023-11-21T06:22:24.812Z,19.75
2023-11-21T06:25:12.373Z,21.55
2023-11-21T06:27:58.903Z,20.80
2023-11-21T06:30:46.932Z,19.70
2023-11-21T06:33:33.595Z,19.65
2023-11-21T06:36:20.154Z,19.85
2023-11-21T06:40:22.698Z,20.70
2023-11-21T06:43:09.515Z,21.70
2023-11-21T06:45:55.764Z,20.13
2023-11-21T06:48:44.942Z,21.50
2023-11-21T06:51:31.198Z,21.73
2023-11-21T06:54:18.404Z,20.38
2023-11-21T06:57:04.926Z,21.00
2023-11-21T06:59:51.742Z,21.63
2023-11-21T07:02:37.968Z,21.80
2023-11-21T07:05:25.220Z,21.88
2023-11-21T07:08:11.765Z,21.60
2023-11-21T07:10:58.518Z,21.23
2023-11-21T07:13:44.973Z,22.08
2023-11-21T07:16:32.087Z,21.70
2023-11-21T07:19:18.179Z,22.55
2023-11-21T07:22:04.667Z,23.20
2023-11-21T07:24:53.009Z,23.45
2023-11-21T07:27:39.923Z,22.48
2023-11-21T07:30:26.109Z,23.25
2023-11-21T07:33:14.087Z,23.02
2023-11-21T07:36:00.728Z,23.45
2023-11-21T07:38:48.188Z,24.20
2023-11-21T07:41:34.776Z,24.58
2023-11-21T07:44:21.726Z,23.83
2023-11-21T07:47:08.277Z,23.17
2023-11-21T07:49:57.262Z,24.27
2023-11-21T07:52:43.710Z,23.83
2023-11-21T07:55:33.808Z,23.83
2023-11-21T07:58:20.753Z,23.98
2023-11-21T08:01:08.058Z,24.70
2023-11-21T08:03:54.166Z,24.23
2023-11-21T08:06:42.908Z,25.50
2023-11-21T08:09:29.447Z,24.27
2023-11-21T08:12:16.396Z,23.35
2023-11-21T08:15:04.460Z,22.88
2023-11-21T08:17:51.812Z,24.63
2023-11-21T08:20:39.813Z,22.98
2023-11-21T08:23:30.098Z,22.90
2023-11-21T08:26:22.923Z,22.75
2023-11-21T08:29:08.922Z,24.58
2023-11-21T08:31:55.465Z,26.27
2023-11-21T08:34:46.126Z,24.92
2023-11-21T08:37:38.442Z,25.77
2023-11-21T08:40:25.022Z,28.15
2023-11-21T08:43:13.193Z,28.55
2023-11-21T08:46:01.303Z,26.85
2023-11-21T08:48:47.560Z,27.73
2023-11-21T09:09:18.911Z,25.95
2023-11-21T09:12:06.353Z,26.27
2023-11-21T09:14:52.458Z,28.85
2023-11-21T09:17:40.127Z,28.52
2023-11-21T09:20:26.504Z,29.45
2023-11-21T09:23:13.974Z,27.50
2023-11-21T09:26:02.133Z,27.10
2023-11-21T09:28:49.576Z,27.40
2023-11-21T09:31:36.754Z,27.25
2023-11-21T09:34:23.964Z,28.88
2023-11-21T09:37:10.834Z,30.17
2023-11-21T09:39:57.891Z,27.60
2023-11-21T09:42:53.878Z,44.25
2023-11-21T09:45:41.669Z,30.65
2023-11-21T09:48:28.594Z,46.90
2023-11-21T09:51:17.484Z,37.63
2023-11-21T09:54:07.468Z,34.38
2023-11-21T09:56:54.244Z,65.93
2023-11-21T09:59:41.760Z,51.00
2023-11-21T10:02:36.433Z,28.90
2023-11-21T10:05:25.457Z,40.67
2023-11-21T10:08:14.254Z,53.88
2023-11-21T10:11:00.969Z,288.15
2023-11-21T10:13:49.388Z,41.55
2023-11-21T10:16:35.856Z,31.33
2023-11-21T10:19:22.948Z,29.33
2023-11-21T10:22:10.009Z,28.48
2023-11-21T10:24:56.707Z,28.50
2023-11-21T10:27:44.298Z,68.38
2023-11-21T10:30:38.470Z,27.10
2023-11-21T10:33:31.025Z,27.50
2023-11-21T10:36:28.564Z,28.42
2023-11-21T10:39:19.385Z,25.73
2023-11-21T10:42:10.128Z,26.67
2023-11-21T10:44:57.437Z,28.95
2023-11-21T10:47:46.038Z,33.47
2023-11-21T10:50:34.307Z,31.83
2023-11-21T10:53:23.404Z,29.77
2023-11-21T10:56:18.610Z,28.90
2023-11-21T10:59:05.369Z,27.83
2023-11-21T11:01:53.706Z,36.83
2023-11-21T11:04:42.108Z,32.58
2023-11-21T11:07:29.374Z,31.92
2023-11-21T11:10:17.127Z,39.17
2023-11-21T11:13:03.713Z,36.35
2023-11-21T11:15:52.988Z,32.13
2023-11-21T11:18:40.204Z,28.30
2023-11-21T11:21:50.813Z,71.63
2023-11-21T11:24:49.241Z,120.95
2023-11-21T11:27:49.453Z,45.85
2023-11-21T11:30:54.204Z,89.20
2023-11-21T11:33:46.902Z,203.48
2023-11-21T11:36:45.148Z,247.60
2023-11-21T11:39:37.881Z,145.38
2023-11-21T11:42:24.962Z,162.70
2023-11-21T11:45:21.324Z,353.27
2023-11-21T11:48:07.505Z,87.85
2023-11-21T11:51:10.442Z,78.15
2023-11-21T11:53:56.487Z,53.83
2023-11-21T11:56:43.374Z,43.67
2023-11-21T11:59:29.466Z,29.02
2023-11-21T12:02:16.921Z,27.27
2023-11-21T12:05:10.590Z,28.83
2023-11-21T12:07:59.224Z,34.35
2023-11-21T12:10:45.634Z,26.65
2023-11-21T12:13:33.439Z,25.95
2023-11-21T12:16:22.478Z,26.80
2023-11-21T12:19:09.022Z,34.60
2023-11-21T12:21:57.104Z,91.85
2023-11-21T12:24:44.099Z,162.13
2023-11-21T12:27:29.908Z,87.75
2023-11-21T12:30:18.977Z,357.30
2023-11-21T12:33:08.209Z,263.90
2023-11-21T12:35:55.474Z,476.67
2023-11-21T12:38:43.309Z,389.75
2023-11-21T12:41:30.748Z,369.58
2023-11-21T12:44:17.720Z,546.33
2023-11-21T12:47:05.264Z,441.23
2023-11-21T12:49:51.902Z,363.92
2023-11-21T12:52:40.991Z,251.00
2023-11-21T12:55:27.290Z,274.08
2023-11-21T12:58:14.622Z,74.00
2023-11-21T13:01:00.855Z,100.70
2023-11-21T13:03:52.784Z,292.92
2023-11-21T13:06:42.226Z,86.25
2023-11-21T13:09:29.587Z,42.90
2023-11-21T13:12:19.236Z,28.80
2023-11-21T13:15:09.082Z,24.58
2023-11-21T13:17:57.221Z,26.85
2023-11-21T13:20:44.361Z,30.33
2023-11-21T13:23:35.481Z,26.98
2023-11-21T13:26:24.205Z,30.08
2023-11-21T13:29:10.141Z,26.60
2023-11-21T13:31:57.311Z,27.65
2023-11-21T13:34:46.234Z,26.95
2023-11-21T13:37:33.949Z,25.35
2023-11-21T13:40:26.789Z,23.60
2023-11-21T13:43:15.067Z,25.48
2023-11-21T13:46:14.230Z,27.00
2023-11-21T13:49:02.264Z,27.92
2023-11-21T13:51:53.302Z,28.15
2023-11-21T13:54:40.317Z,27.40
2023-11-21T13:57:26.614Z,26.17
2023-11-21T14:00:34.118Z,26.23
2023-11-21T14:03:23.340Z,26.05
2023-11-21T14:06:15.876Z,26.00
2023-11-21T14:09:06.427Z,26.90
2023-11-21T14:11:57.829Z,26.65
2023-11-21T14:14:45.666Z,26.98
2023-11-21T14:17:32.673Z,25.77
2023-11-21T14:20:22.126Z,25.20
2023-11-21T14:23:09.641Z,25.70
2023-11-21T14:25:55.895Z,25.95
2023-11-21T14:28:43.922Z,34.05
2023-11-21T14:31:31.805Z,24.70
2023-11-21T14:34:21.616Z,25.27
2023-11-21T14:37:09.983Z,25.30
2023-11-21T14:39:56.899Z,25.02
2023-11-21T14:42:44.223Z,24.55
2023-11-21T14:45:31.552Z,24.83
2023-11-21T14:48:30.202Z,24.98
2023-11-21T14:51:17.667Z,23.83
2023-11-21T14:54:11.186Z,23.42
2023-11-21T14:56:58.176Z,23.05
2023-11-21T14:59:51.980Z,23.17
2023-11-21T15:02:50.985Z,22.10
2023-11-21T15:05:39.790Z,22.70
2023-11-21T15:08:33.909Z,25.58
2023-11-21T15:11:23.456Z,23.23
2023-11-21T15:14:11.495Z,28.00
2023-11-21T15:17:01.160Z,36.70
2023-11-21T15:19:47.340Z,170.93
2023-11-21T15:22:33.689Z,99.13
2023-11-21T15:25:20.688Z,102.85
2023-11-21T15:28:07.778Z,41.35
2023-11-21T15:30:54.738Z,24.80
2023-11-21T15:33:44.270Z,23.70
2023-11-21T15:36:31.313Z,24.67
2023-11-21T15:39:17.746Z,23.60
2023-11-21T15:42:05.666Z,23.80
2023-11-21T15:44:52.477Z,24.05
2023-11-21T15:47:39.607Z,25.42
2023-11-21T15:50:27.529Z,23.50
2023-11-21T15:53:14.197Z,25.05
2023-11-21T15:56:00.596Z,23.95
2023-11-21T15:58:50.673Z,24.33
2023-11-21T16:01:43.129Z,24.02
2023-11-21T16:04:29.917Z,25.38
2023-11-21T16:07:17.576Z,25.48
2023-11-21T16:10:09.130Z,24.08
2023-11-21T16:12:55.847Z,26.08
2023-11-21T16:15:46.127Z,25.17
2023-11-21T16:18:33.512Z,24.42
2023-11-21T16:21:21.553Z,23.50
2023-11-21T16:24:08.071Z,24.70
2023-11-21T16:26:56.199Z,24.92
2023-11-21T16:29:46.846Z,26.52
2023-11-21T16:32:35.709Z,32.75
2023-11-21T16:35:25.926Z,32.75
2023-11-21T16:38:14.695Z,26.65
2023-11-21T16:41:07.088Z,29.85
2023-11-21T16:43:53.419Z,66.93
2023-11-21T16:46:40.767Z,87.50
2023-11-21T16:49:29.968Z,29.95
2023-11-21T16:52:16.867Z,29.05
2023-11-21T16:55:04.399Z,27.42
2023-11-21T16:57:53.126Z,27.55
2023-11-21T17:00:39.961Z,26.40
2023-11-21T17:03:27.732Z,24.70
2023-11-21T17:06:15.052Z,26.63
2023-11-21T17:09:02.289Z,26.88
2023-11-21T17:11:50.653Z,26.95
2023-11-21T17:14:37.015Z,25.67
2023-11-21T17:17:24.305Z,25.65
2023-11-21T17:20:12.211Z,23.52
2023-11-21T17:22:58.941Z,37.63
2023-11-21T17:25:45.302Z,26.35
2023-11-21T17:28:32.379Z,29.13
2023-11-21T17:31:19.884Z,24.50
2023-11-21T17:34:11.336Z,26.77
2023-11-21T17:36:57.891Z,24.30
2023-11-21T17:39:46.457Z,24.33
2023-11-21T17:42:32.402Z,24.42
2023-11-21T17:45:20.803Z,25.65
2023-11-21T17:48:08.427Z,25.88
2023-11-21T17:50:55.714Z,25.63
2023-11-21T17:53:44.910Z,23.55
2023-11-21T17:56:35.399Z,24.85
2023-11-21T17:59:27.976Z,24.70
2023-11-21T18:02:14.584Z,24.88
2023-11-21T18:05:06.423Z,23.13
2023-11-21T18:07:53.832Z,22.95
2023-11-21T18:10:40.043Z,22.33
2023-11-21T18:13:27.491Z,24.83
2023-11-21T18:16:15.612Z,23.25
2023-11-21T18:19:02.117Z,22.63
2023-11-21T18:21:48.608Z,20.55
2023-11-21T18:24:48.730Z,21.27
2023-11-21T18:27:36.473Z,21.65
2023-11-21T18:30:23.056Z,20.90
2023-11-21T18:33:09.421Z,21.63
2023-11-21T18:35:56.238Z,22.75
2023-11-21T18:38:42.375Z,22.67
2023-11-21T18:41:31.711Z,22.13
2023-11-21T18:44:17.741Z,22.77
2023-11-21T18:47:05.375Z,23.00
2023-11-21T18:49:51.684Z,22.15
2023-11-21T18:52:38.705Z,22.63
2023-11-21T18:55:25.439Z,22.17
2023-11-21T18:58:12.389Z,22.75
2023-11-21T19:00:58.471Z,22.63
2023-11-21T19:03:45.646Z,21.48
2023-11-21T19:06:34.290Z,22.73
2023-11-21T19:09:20.710Z,23.23
2023-11-21T19:12:07.419Z,23.20
2023-11-21T19:14:54.120Z,22.70
2023-11-21T19:17:40.714Z,22.40
2023-11-21T19:20:27.451Z,24.40
2023-11-21T19:23:13.897Z,22.58
2023-11-21T19:26:01.506Z,23.60
2023-11-21T19:28:53.845Z,22.98
2023-11-21T19:31:50.351Z,22.98
2023-11-21T19:34:36.805Z,24.30
2023-11-21T19:37:23.874Z,23.60
2023-11-21T19:40:10.791Z,24.48
2023-11-21T19:42:58.204Z,26.27
2023-11-21T19:45:44.552Z,26.33
2023-11-21T19:48:31.998Z,28.77
2023-11-21T19:51:19.354Z,22.50
2023-11-21T19:54:07.640Z,22.17
2023-11-21T19:56:54.217Z,22.95
2023-11-21T19:59:44.592Z,23.13
2023-11-21T20:02:30.989Z,22.73
2023-11-21T20:05:19.285Z,23.15
2023-11-21T20:08:05.996Z,24.02
2023-11-21T20:10:55.537Z,23.52
2023-11-21T20:13:42.116Z,25.90
2023-11-21T20:16:29.115Z,24.10
2023-11-21T20:19:15.602Z,24.80
2023-11-21T20:22:03.017Z,32.45
2023-11-21T20:24:49.156Z,24.20
2023-11-21T20:27:36.235Z,25.02
2023-11-21T20:30:23.988Z,26.42
2023-11-21T20:33:11.098Z,27.55
2023-11-21T20:35:57.490Z,26.17
2023-11-21T20:38:44.667Z,24.58
2023-11-21T20:41:31.095Z,25.75
2023-11-21T20:44:18.623Z,26.38
2023-11-21T20:47:10.784Z,26.10
2023-11-21T20:50:01.282Z,24.58
2023-11-21T20:52:47.496Z,24.20
2023-11-21T20:55:34.372Z,23.27
2023-11-21T20:58:21.360Z,23.48
2023-11-21T21:01:08.508Z,24.05
2023-11-21T21:03:55.067Z,24.10
2023-11-21T21:06:41.889Z,23.13
2023-11-21T21:09:28.349Z,23.52
2023-11-21T21:12:15.482Z,23.95
2023-11-21T21:15:01.322Z,24.85
2023-11-21T21:17:48.343Z,23.90
2023-11-21T21:20:35.411Z,24.30
2023-11-21T21:23:22.928Z,24.48
2023-11-21T21:26:10.794Z,24.83
2023-11-21T21:28:58.518Z,24.02
2023-11-21T21:31:44.574Z,24.13
2023-11-21T21:34:31.005Z,24.40
2023-11-21T21:37:17.849Z,25.23
2023-11-21T21:40:04.260Z,24.25
2023-11-21T21:42:50.415Z,24.35
2023-11-21T21:45:39.033Z,23.13
2023-11-21T21:48:25.694Z,22.90
2023-11-21T21:51:17.437Z,23.35
2023-11-21T21:54:04.085Z,22.77
2023-11-21T21:56:51.834Z,22.58
2023-11-21T21:59:39.308Z,23.33
2023-11-21T22:02:26.373Z,22.40
2023-11-21T22:05:13.709Z,22.08
2023-11-21T22:08:00.381Z,22.98
2023-11-21T22:10:46.409Z,21.45
2023-11-21T22:13:34.362Z,21.33
2023-11-21T22:16:22.336Z,21.42
2023-11-21T22:19:08.706Z,20.27
2023-11-21T22:21:55.152Z,20.52
2023-11-21T22:24:42.377Z,20.92
2023-11-21T22:27:30.091Z,20.90
2023-11-21T22:30:16.943Z,21.20
2023-11-21T22:33:03.091Z,21.08
2023-11-21T22:35:50.563Z,21.73
2023-11-21T22:38:36.695Z,21.45
2023-11-21T22:41:27.484Z,20.40
2023-11-21T22:47:03.066Z,20.20
2023-11-21T22:49:49.271Z,20.85
2023-11-21T22:52:35.740Z,20.90
2023-11-21T22:55:21.759Z,20.45
2023-11-21T22:58:08.761Z,21.48
2023-11-21T23:00:58.811Z,20.70
2023-11-21T23:03:49.845Z,22.50
2023-11-21T23:06:36.356Z,22.45
2023-11-21T23:09:23.632Z,23.00
2023-11-21T23:12:10.235Z,25.27
2023-11-21T23:14:57.380Z,26.52
2023-11-21T23:17:43.772Z,28.02
2023-11-21T23:20:32.257Z,27.52
2023-11-21T23:23:18.872Z,28.60
2023-11-21T23:26:06.648Z,29.50
2023-11-21T23:28:52.943Z,28.70
2023-11-21T23:31:39.854Z,29.23
2023-11-21T23:34:26.625Z,27.20
2023-11-21T23:37:13.598Z,26.52
2023-11-21T23:40:00.463Z,25.48
2023-11-21T23:42:47.040Z,26.33
2023-11-21T23:45:34.614Z,26.00
2023-11-21T23:48:22.121Z,26.35
2023-11-21T23:51:08.104Z,26.10
2023-11-21T23:53:55.595Z,25.55
2023-11-21T23:56:41.600Z,27.13
2023-11-21T23:59:28.996Z,28.05
